Time;durP1;ratioP1;P1;durP2;ratioP2;P2;SDS_P1;SDS_P2;PMS_P1;PMS_P2;Temp;Humidity;BMP_temperature;BMP_pressure;BME280_temperature;BME280_humidity;BME280_pressure;Samples;Min_cycle;Max_cycle;Signal;HPM_P1;HPM_P2
2021/09/18 00:00:53;;;;;;;10.30;8.55;;;;;;;;;;4784742;29;20031;-82
2021/09/18 00:03:19;;;;;;;11.20;8.25;;;;;;;;;;4770767;30;20039;-84
2021/09/18 00:05:46;;;;;;;7.60;6.80;;;;;;;;;;4756261;30;20055;-83
2021/09/18 00:08:11;;;;;;;7.78;6.72;;;;;;;;;;4773366;30;20039;-82
2021/09/18 00:10:37;;;;;;;7.97;7.00;;;;;;;;;;4797593;29;20399;-84
2021/09/18 00:13:02;;;;;;;8.15;7.20;;;;;;;;;;4777922;30;20035;-84
2021/09/18 00:15:30;;;;;;;8.43;7.57;;;;;;;;;;4763354;30;20104;-84
2021/09/18 00:17:58;;;;;;;9.80;8.75;;;;;;;;;;4787027;29;20043;-81
2021/09/18 00:20:23;;;;;;;10.68;8.73;;;;;;;;;;4772416;30;20503;-84
2021/09/18 00:22:48;;;;;;;11.15;9.30;;;;;;;;;;4774386;30;20035;-82
2021/09/18 00:25:14;;;;;;;12.40;8.77;;;;;;;;;;4769747;30;20051;-81
2021/09/18 00:27:40;;;;;;;14.10;9.50;;;;;;;;;;4781849;29;20047;-84
2021/09/18 00:30:07;;;;;;;14.30;10.20;;;;;;;;;;4788594;29;20087;-84
2021/09/18 00:32:32;;;;;;;12.32;9.75;;;;;;;;;;4772788;30;20064;-82
2021/09/18 00:34:58;;;;;;;12.40;9.25;;;;;;;;;;4773666;30;20031;-84
2021/09/18 00:37:23;;;;;;;12.40;10.00;;;;;;;;;;4774776;30;20047;-82
2021/09/18 00:39:48;;;;;;;12.50;9.90;;;;;;;;;;4758436;30;20035;-82
2021/09/18 00:42:14;;;;;;;13.38;10.48;;;;;;;;;;4774031;30;20039;-81
2021/09/18 00:44:39;;;;;;;11.88;9.68;;;;;;;;;;4771451;29;20805;-81
2021/09/18 00:47:05;;;;;;;14.68;10.10;;;;;;;;;;4774576;29;20736;-84
2021/09/18 00:49:30;;;;;;;14.02;10.07;;;;;;;;;;4775021;30;20100;-84
2021/09/18 00:51:56;;;;;;;14.60;9.73;;;;;;;;;;4758561;30;20493;-84
2021/09/18 00:54:23;;;;;;;13.52;9.70;;;;;;;;;;4774626;29;20050;-82
2021/09/18 00:56:53;;;;;;;12.27;10.18;;;;;;;;;;4773363;30;20039;-84
2021/09/18 00:59:19;;;;;;;13.75;10.05;;;;;;;;;;4775754;30;20043;-81
2021/09/18 01:01:45;;;;;;;13.77;10.05;;;;;;;;;;4776709;30;20053;-84
2021/09/18 01:04:10;;;;;;;15.13;9.82;;;;;;;;;;4774835;30;20130;-81
2021/09/18 01:06:35;;;;;;;11.93;9.80;;;;;;;;;;4789511;29;20035;-84
2021/09/18 01:09:01;;;;;;;12.05;9.52;;;;;;;;;;4775011;30;20050;-84
2021/09/18 01:11:28;;;;;;;10.65;9.20;;;;;;;;;;4782497;30;20035;-82
2021/09/18 01:13:54;;;;;;;10.80;9.23;;;;;;;;;;4790213;30;20046;-81
2021/09/18 01:16:21;;;;;;;10.95;9.43;;;;;;;;;;4791160;29;20051;-81
2021/09/18 01:18:47;;;;;;;12.25;9.38;;;;;;;;;;4788599;29;20035;-81
2021/09/18 01:21:13;;;;;;;13.52;9.07;;;;;;;;;;4784778;30;20378;-84
2021/09/18 01:23:38;;;;;;;11.25;8.57;;;;;;;;;;4775096;30;20458;-83
2021/09/18 01:26:04;;;;;;;10.50;8.88;;;;;;;;;;4764393;30;20070;-81
2021/09/18 01:28:30;;;;;;;12.30;7.90;;;;;;;;;;4773374;30;20032;-84
2021/09/18 01:30:55;;;;;;;11.52;9.02;;;;;;;;;;4770221;30;20036;-81
2021/09/18 01:33:21;;;;;;;11.75;9.20;;;;;;;;;;4755419;30;20050;-84
2021/09/18 01:35:46;;;;;;;10.73;8.95;;;;;;;;;;4788271;29;20050;-81
2021/09/18 01:38:12;;;;;;;12.20;8.85;;;;;;;;;;4770878;29;20047;-81
2021/09/18 01:40:40;;;;;;;13.18;9.15;;;;;;;;;;4771005;30;20480;-81
2021/09/18 01:43:06;;;;;;;17.67;9.65;;;;;;;;;;4772057;29;20058;-81
2021/09/18 01:45:33;;;;;;;10.70;8.57;;;;;;;;;;4773369;30;20069;-84
2021/09/18 01:48:02;;;;;;;12.13;9.15;;;;;;;;;;4776107;30;20381;-84
2021/09/18 01:53:13;;;;;;;12.10;8.98;;;;;;;;;;4787780;30;20069;-84
2021/09/18 01:55:40;;;;;;;12.85;8.63;;;;;;;;;;4785844;29;20107;-82
2021/09/18 01:58:06;;;;;;;10.07;7.80;;;;;;;;;;4775588;30;20051;-81
2021/09/18 02:00:35;;;;;;;12.63;8.90;;;;;;;;;;4770088;30;20099;-81
2021/09/18 02:03:00;;;;;;;11.32;8.48;;;;;;;;;;4786264;30;20039;-84
2021/09/18 02:05:27;;;;;;;10.27;8.25;;;;;;;;;;4759815;30;20062;-85
2021/09/18 02:07:53;;;;;;;13.50;8.40;;;;;;;;;;4785524;30;20515;-81
2021/09/18 02:10:21;;;;;;;11.95;8.15;;;;;;;;;;4762588;30;20035;-81
2021/09/18 02:12:47;;;;;;;10.48;7.65;;;;;;;;;;4789618;30;20039;-81
2021/09/18 02:15:14;;;;;;;12.80;8.25;;;;;;;;;;4790164;29;20062;-81
2021/09/18 02:17:40;;;;;;;13.38;9.27;;;;;;;;;;4773573;30;20027;-81
2021/09/18 02:20:08;;;;;;;15.15;9.02;;;;;;;;;;4790944;29;20054;-83
2021/09/18 02:22:34;;;;;;;10.57;8.75;;;;;;;;;;4788693;29;20035;-81
2021/09/18 02:24:59;;;;;;;12.40;9.23;;;;;;;;;;4758361;30;20042;-84
2021/09/18 02:27:25;;;;;;;10.45;8.38;;;;;;;;;;4788864;30;20045;-81
2021/09/18 02:29:50;;;;;;;14.07;10.20;;;;;;;;;;4771290;29;20043;-84
2021/09/18 02:32:16;;;;;;;14.70;10.27;;;;;;;;;;4759891;30;20122;-83
2021/09/18 02:34:41;;;;;;;13.52;10.40;;;;;;;;;;4784837;30;20096;-84
2021/09/18 02:37:07;;;;;;;14.20;11.35;;;;;;;;;;4778369;30;20065;-81
2021/09/18 02:39:32;;;;;;;13.90;10.40;;;;;;;;;;4770484;30;20047;-81
2021/09/18 02:41:58;;;;;;;16.33;10.77;;;;;;;;;;4779555;30;20051;-84
2021/09/18 02:44:23;;;;;;;16.15;10.90;;;;;;;;;;4774274;30;20058;-84
2021/09/18 02:46:48;;;;;;;14.93;11.48;;;;;;;;;;4772650;30;20050;-84
2021/09/18 02:49:14;;;;;;;15.23;11.27;;;;;;;;;;4759842;30;20094;-84
2021/09/18 02:51:39;;;;;;;15.45;11.48;;;;;;;;;;4773599;30;20792;-83
2021/09/18 02:54:05;;;;;;;16.63;11.68;;;;;;;;;;4772030;30;20074;-81
2021/09/18 02:56:30;;;;;;;16.48;12.23;;;;;;;;;;4773525;29;20035;-84
2021/09/18 02:58:55;;;;;;;15.90;12.18;;;;;;;;;;4757748;30;20055;-81
2021/09/18 03:01:21;;;;;;;16.38;11.98;;;;;;;;;;4773516;29;20046;-81
2021/09/18 03:03:47;;;;;;;16.02;12.05;;;;;;;;;;4773998;30;20130;-81
2021/09/18 03:06:12;;;;;;;16.75;12.35;;;;;;;;;;4788670;30;20035;-81
2021/09/18 03:08:38;;;;;;;17.42;12.30;;;;;;;;;;4754851;30;20039;-81
2021/09/18 03:11:04;;;;;;;18.25;12.75;;;;;;;;;;4761857;29;20078;-81
2021/09/18 03:13:30;;;;;;;18.60;13.05;;;;;;;;;;4788717;29;20063;-84
2021/09/18 03:15:56;;;;;;;18.75;13.90;;;;;;;;;;4791938;29;20031;-81
2021/09/18 03:18:21;;;;;;;20.45;15.15;;;;;;;;;;4790815;29;20514;-81
2021/09/18 03:20:47;;;;;;;21.70;14.90;;;;;;;;;;4789140;30;20031;-84
2021/09/18 03:23:13;;;;;;;20.90;14.75;;;;;;;;;;4788712;30;20035;-84
2021/09/18 03:25:42;;;;;;;18.35;14.02;;;;;;;;;;4760658;29;20035;-81
2021/09/18 03:28:07;;;;;;;21.70;14.35;;;;;;;;;;4758560;30;20139;-81
2021/09/18 03:30:33;;;;;;;19.27;14.23;;;;;;;;;;4788097;29;20055;-81
2021/09/18 03:32:58;;;;;;;22.90;14.52;;;;;;;;;;4756797;30;20423;-84
2021/09/18 03:35:24;;;;;;;20.85;13.70;;;;;;;;;;4758448;30;20054;-81
2021/09/18 03:37:49;;;;;;;18.17;13.20;;;;;;;;;;4772044;30;20112;-82
2021/09/18 03:40:15;;;;;;;14.82;10.55;;;;;;;;;;4784057;30;20058;-84
2021/09/18 03:42:40;;;;;;;12.45;9.48;;;;;;;;;;4770801;29;20070;-84
2021/09/18 03:45:06;;;;;;;11.90;9.18;;;;;;;;;;4791629;29;20590;-84
2021/09/18 03:47:31;;;;;;;12.80;8.85;;;;;;;;;;4782679;30;20043;-84
2021/09/18 03:49:57;;;;;;;11.77;8.55;;;;;;;;;;4770154;30;20119;-85
2021/09/18 03:52:26;;;;;;;13.27;9.60;;;;;;;;;;4772769;30;20043;-84
2021/09/18 03:54:55;;;;;;;12.85;8.98;;;;;;;;;;4778578;29;20503;-83
2021/09/18 03:57:20;;;;;;;12.10;9.32;;;;;;;;;;4791449;29;20511;-81
2021/09/18 03:59:46;;;;;;;13.48;9.90;;;;;;;;;;4773664;30;20122;-84
2021/09/18 04:02:11;;;;;;;11.95;9.45;;;;;;;;;;4786696;29;20060;-81
2021/09/18 04:04:37;;;;;;;12.00;9.57;;;;;;;;;;4794611;29;20047;-84
2021/09/18 04:07:03;;;;;;;12.55;9.80;;;;;;;;;;4755532;29;20077;-81
2021/09/18 04:09:29;;;;;;;12.35;9.65;;;;;;;;;;4774683;30;20043;-84
2021/09/18 04:11:54;;;;;;;12.85;10.05;;;;;;;;;;4791179;30;20034;-84
2021/09/18 04:14:19;;;;;;;12.32;9.60;;;;;;;;;;4775042;30;20036;-84
2021/09/18 04:16:45;;;;;;;13.00;10.02;;;;;;;;;;4764225;30;20035;-81
2021/09/18 04:19:10;;;;;;;11.75;9.90;;;;;;;;;;4789949;29;20043;-82
2021/09/18 04:21:36;;;;;;;13.93;9.77;;;;;;;;;;4788368;30;20454;-81
2021/09/18 04:24:02;;;;;;;10.90;9.60;;;;;;;;;;4783662;29;20134;-84
2021/09/18 04:26:28;;;;;;;13.15;10.05;;;;;;;;;;4776947;30;20051;-84
2021/09/18 04:28:53;;;;;;;13.05;10.15;;;;;;;;;;4789681;30;20114;-81
2021/09/18 04:31:19;;;;;;;13.35;10.73;;;;;;;;;;4776287;30;20110;-81
2021/09/18 04:33:44;;;;;;;16.70;11.63;;;;;;;;;;4792477;30;20071;-81
2021/09/18 04:36:09;;;;;;;15.25;11.38;;;;;;;;;;4788896;30;20038;-85
2021/09/18 04:38:35;;;;;;;15.52;11.18;;;;;;;;;;4774109;30;20457;-81
2021/09/18 04:41:01;;;;;;;16.17;12.10;;;;;;;;;;4777871;29;20114;-81
2021/09/18 04:43:27;;;;;;;15.55;11.45;;;;;;;;;;4786789;30;20039;-84
2021/09/18 04:45:52;;;;;;;15.10;11.73;;;;;;;;;;4773168;30;20046;-81
2021/09/18 04:48:18;;;;;;;15.43;10.73;;;;;;;;;;4786872;29;20047;-81
2021/09/18 04:50:43;;;;;;;14.85;11.68;;;;;;;;;;4792773;30;20146;-83
2021/09/18 04:53:09;;;;;;;14.73;11.15;;;;;;;;;;4776056;30;20039;-84
2021/09/18 04:55:34;;;;;;;15.98;11.68;;;;;;;;;;4758241;30;20046;-82
2021/09/18 04:58:00;;;;;;;14.52;11.02;;;;;;;;;;4784610;29;20051;-84
2021/09/18 05:00:25;;;;;;;14.85;11.88;;;;;;;;;;4774882;30;20110;-81
2021/09/18 05:02:51;;;;;;;16.95;12.30;;;;;;;;;;4743875;30;20055;-81
2021/09/18 05:05:16;;;;;;;14.35;11.52;;;;;;;;;;4795017;29;20045;-81
2021/09/18 05:07:42;;;;;;;13.35;11.20;;;;;;;;;;4790753;29;20122;-81
2021/09/18 05:10:07;;;;;;;14.93;11.48;;;;;;;;;;4794074;29;20077;-81
2021/09/18 05:12:33;;;;;;;14.15;11.27;;;;;;;;;;4779657;30;20039;-84
2021/09/18 05:14:58;;;;;;;13.30;10.93;;;;;;;;;;4747218;30;20071;-84
2021/09/18 05:17:24;;;;;;;14.82;12.05;;;;;;;;;;4761577;30;20035;-84
2021/09/18 05:19:49;;;;;;;15.52;12.60;;;;;;;;;;4775174;29;20031;-84
2021/09/18 05:22:14;;;;;;;15.75;12.35;;;;;;;;;;4774439;30;20051;-84
2021/09/18 05:24:40;;;;;;;14.05;11.82;;;;;;;;;;4797155;29;20518;-83
2021/09/18 05:27:06;;;;;;;13.82;11.88;;;;;;;;;;4797662;29;20558;-81
2021/09/18 05:29:32;;;;;;;14.30;12.00;;;;;;;;;;4774087;30;20046;-84
2021/09/18 05:31:57;;;;;;;14.40;12.40;;;;;;;;;;4773728;30;20116;-84
2021/09/18 05:34:23;;;;;;;15.70;12.05;;;;;;;;;;4790096;29;20114;-81
2021/09/18 05:36:48;;;;;;;15.70;12.32;;;;;;;;;;4787701;30;20039;-84
2021/09/18 05:39:14;;;;;;;13.80;11.80;;;;;;;;;;4770830;30;20408;-84
2021/09/18 05:41:39;;;;;;;13.35;11.95;;;;;;;;;;4788505;29;20039;-81
2021/09/18 05:44:05;;;;;;;13.48;11.93;;;;;;;;;;4789185;30;20031;-81
2021/09/18 05:46:30;;;;;;;13.48;11.93;;;;;;;;;;4775135;30;20042;-83
2021/09/18 05:48:56;;;;;;;13.65;11.55;;;;;;;;;;4771963;30;20039;-84
2021/09/18 05:51:21;;;;;;;12.82;11.48;;;;;;;;;;4772753;30;20088;-84
2021/09/18 05:53:46;;;;;;;13.32;10.65;;;;;;;;;;4773506;29;20480;-84
2021/09/18 05:56:12;;;;;;;11.43;10.23;;;;;;;;;;4772763;30;20492;-84
2021/09/18 05:58:38;;;;;;;13.43;9.75;;;;;;;;;;4776630;30;20051;-84
2021/09/18 06:01:04;;;;;;;12.45;10.45;;;;;;;;;;4779856;30;20484;-84
2021/09/18 06:03:29;;;;;;;11.60;9.80;;;;;;;;;;4788512;29;20043;-84
2021/09/18 06:05:55;;;;;;;11.10;9.95;;;;;;;;;;4773577;29;20049;-81
2021/09/18 06:08:21;;;;;;;11.18;9.50;;;;;;;;;;4776007;30;20035;-81
2021/09/18 06:10:47;;;;;;;10.35;9.30;;;;;;;;;;4774484;29;20043;-81
2021/09/18 06:13:12;;;;;;;11.05;9.30;;;;;;;;;;4774040;30;20043;-81
2021/09/18 06:15:38;;;;;;;10.90;8.90;;;;;;;;;;4746085;30;20042;-84
2021/09/18 06:18:03;;;;;;;12.18;9.90;;;;;;;;;;4754453;30;20039;-81
2021/09/18 06:20:29;;;;;;;14.13;9.35;;;;;;;;;;4775713;30;20031;-84
2021/09/18 06:22:55;;;;;;;10.43;8.65;;;;;;;;;;4767412;30;20042;-81
2021/09/18 06:25:20;;;;;;;9.90;7.90;;;;;;;;;;4786434;29;20035;-80
2021/09/18 06:27:46;;;;;;;9.52;8.50;;;;;;;;;;4788763;29;20035;-81
2021/09/18 06:30:12;;;;;;;9.57;8.15;;;;;;;;;;4786961;29;20043;-84
2021/09/18 06:32:38;;;;;;;11.35;7.50;;;;;;;;;;4772931;30;20035;-84
2021/09/18 06:35:04;;;;;;;9.43;7.95;;;;;;;;;;4772846;30;20046;-84
2021/09/18 06:37:29;;;;;;;9.48;8.02;;;;;;;;;;4767921;29;20035;-80
2021/09/18 06:39:55;;;;;;;9.63;7.50;;;;;;;;;;4760971;30;20404;-83
2021/09/18 06:42:20;;;;;;;11.63;8.30;;;;;;;;;;4768837;30;20599;-81
2021/09/18 06:44:45;;;;;;;12.15;9.30;;;;;;;;;;4777297;29;20123;-81
2021/09/18 06:47:11;;;;;;;13.52;9.02;;;;;;;;;;4763448;29;20043;-83
2021/09/18 06:49:37;;;;;;;11.20;8.45;;;;;;;;;;4771152;30;20084;-84
2021/09/18 06:52:05;;;;;;;14.82;9.70;;;;;;;;;;4777363;29;20031;-84
2021/09/18 06:54:30;;;;;;;13.20;10.18;;;;;;;;;;4795945;29;20100;-84
2021/09/18 06:56:56;;;;;;;15.65;11.23;;;;;;;;;;4783598;30;20027;-81
2021/09/18 06:59:21;;;;;;;15.18;9.98;;;;;;;;;;4775782;29;20135;-80
2021/09/18 07:01:46;;;;;;;13.77;11.50;;;;;;;;;;4763151;30;20103;-83
2021/09/18 07:04:12;;;;;;;14.27;11.00;;;;;;;;;;4765386;30;20040;-83
2021/09/18 07:06:37;;;;;;;14.13;11.52;;;;;;;;;;4756420;29;20047;-80
2021/09/18 07:09:03;;;;;;;14.35;10.77;;;;;;;;;;4790262;29;20128;-79
2021/09/18 07:11:28;;;;;;;17.60;12.20;;;;;;;;;;4762391;29;20461;-83
2021/09/18 07:13:54;;;;;;;14.23;10.85;;;;;;;;;;4774363;30;20067;-83
2021/09/18 07:16:19;;;;;;;14.15;10.77;;;;;;;;;;4787459;29;20050;-83
2021/09/18 07:18:44;;;;;;;13.68;11.13;;;;;;;;;;4762597;30;20046;-83
2021/09/18 07:21:10;;;;;;;16.92;11.80;;;;;;;;;;4759455;30;20492;-80
2021/09/18 07:23:35;;;;;;;15.43;11.93;;;;;;;;;;4740085;30;20432;-83
2021/09/18 07:26:01;;;;;;;15.55;11.77;;;;;;;;;;4773331;29;20042;-83
2021/09/18 07:28:28;;;;;;;15.15;10.93;;;;;;;;;;4775907;30;20043;-83
2021/09/18 07:30:54;;;;;;;13.77;10.70;;;;;;;;;;4790728;29;20077;-80
2021/09/18 07:33:20;;;;;;;18.23;11.48;;;;;;;;;;4789355;29;20040;-83
2021/09/18 07:35:45;;;;;;;14.45;10.75;;;;;;;;;;4772526;29;20059;-80
2021/09/18 07:38:12;;;;;;;17.52;11.38;;;;;;;;;;4778211;29;20039;-80
2021/09/18 07:40:37;;;;;;;15.60;11.73;;;;;;;;;;4756393;30;20107;-83
2021/09/18 07:43:03;;;;;;;18.05;13.23;;;;;;;;;;4790842;29;20063;-83
2021/09/18 07:45:28;;;;;;;18.95;13.27;;;;;;;;;;4779372;29;20043;-81
2021/09/18 07:47:54;;;;;;;18.90;13.27;;;;;;;;;;4782576;29;20039;-84
2021/09/18 07:50:20;;;;;;;18.73;13.50;;;;;;;;;;4789124;30;20426;-83
2021/09/18 07:52:46;;;;;;;17.95;12.90;;;;;;;;;;4793681;29;20046;-83
2021/09/18 07:55:11;;;;;;;17.67;12.65;;;;;;;;;;4784620;29;20035;-84
2021/09/18 07:57:37;;;;;;;17.98;13.35;;;;;;;;;;4744986;30;20066;-83
2021/09/18 08:00:05;;;;;;;19.70;14.32;;;;;;;;;;4771714;30;20510;-82
2021/09/18 08:02:30;;;;;;;19.90;14.27;;;;;;;;;;4782293;29;20041;-84
2021/09/18 08:04:56;;;;;;;26.58;14.13;;;;;;;;;;4768514;30;20496;-84
2021/09/18 08:07:21;;;;;;;20.15;13.82;;;;;;;;;;4767057;30;20039;-84
2021/09/18 08:09:52;;;;;;;19.13;13.75;;;;;;;;;;4771252;30;20146;-80
2021/09/18 08:12:18;;;;;;;20.38;14.65;;;;;;;;;;4781782;29;20042;-84
2021/09/18 08:14:43;;;;;;;19.60;14.85;;;;;;;;;;4788383;29;20134;-81
2021/09/18 08:17:08;;;;;;;19.42;14.10;;;;;;;;;;4769500;30;20041;-84
2021/09/18 08:19:34;;;;;;;18.45;13.23;;;;;;;;;;4777791;29;20697;-81
2021/09/18 08:21:59;;;;;;;18.15;13.48;;;;;;;;;;4784929;30;20047;-84
2021/09/18 08:24:25;;;;;;;17.27;13.15;;;;;;;;;;4789681;29;20404;-84
2021/09/18 08:26:50;;;;;;;17.08;13.18;;;;;;;;;;4756691;30;20045;-81
2021/09/18 08:29:16;;;;;;;17.48;12.20;;;;;;;;;;4770715;29;20043;-84
2021/09/18 08:31:41;;;;;;;19.23;12.60;;;;;;;;;;4758685;30;20046;-84
2021/09/18 08:34:07;;;;;;;17.77;12.02;;;;;;;;;;4777734;29;20053;-81
2021/09/18 08:36:32;;;;;;;17.27;11.80;;;;;;;;;;4784334;29;20141;-84
2021/09/18 08:38:57;;;;;;;17.40;11.95;;;;;;;;;;4759871;30;20119;-84
2021/09/18 08:41:24;;;;;;;15.80;12.00;;;;;;;;;;4772286;29;20973;-81
2021/09/18 08:43:50;;;;;;;20.92;12.90;;;;;;;;;;4769286;30;20570;-83
2021/09/18 08:46:17;;;;;;;17.27;12.48;;;;;;;;;;4784975;30;20110;-81
2021/09/18 08:48:44;;;;;;;17.10;13.10;;;;;;;;;;4789282;29;20042;-85
2021/09/18 08:51:10;;;;;;;17.15;12.80;;;;;;;;;;4785362;30;20406;-85
2021/09/18 08:53:36;;;;;;;14.48;11.35;;;;;;;;;;4785312;29;20035;-81
2021/09/18 08:56:02;;;;;;;16.48;11.85;;;;;;;;;;4792437;29;20047;-83
2021/09/18 08:58:28;;;;;;;18.48;12.52;;;;;;;;;;4771093;30;20112;-81
2021/09/18 09:00:55;;;;;;;15.65;11.57;;;;;;;;;;4775296;29;20043;-85
2021/09/18 09:03:28;;;;;;;15.25;11.52;;;;;;;;;;4762307;29;20063;-81
2021/09/18 09:06:09;;;;;;;14.95;11.68;;;;;;;;;;4780914;29;20028;-81
2021/09/18 09:08:36;;;;;;;16.55;12.23;;;;;;;;;;4795791;29;20027;-81
2021/09/18 09:11:20;;;;;;;18.75;12.73;;;;;;;;;;4774603;30;20100;-81
2021/09/18 09:13:59;;;;;;;16.08;11.45;;;;;;;;;;4784905;30;20027;-84
2021/09/18 09:16:26;;;;;;;15.38;10.90;;;;;;;;;;4789527;29;20059;-85
2021/09/18 09:18:52;;;;;;;12.23;7.72;;;;;;;;;;4768488;30;20039;-81
2021/09/18 09:21:29;;;;;;;14.32;10.68;;;;;;;;;;4785307;30;20031;-85
2021/09/18 09:24:10;;;;;;;16.77;10.95;;;;;;;;;;4796721;29;20923;-81
2021/09/18 09:26:39;;;;;;;14.52;10.75;;;;;;;;;;4765231;30;20574;-85
2021/09/18 09:29:05;;;;;;;15.65;11.30;;;;;;;;;;4788248;29;20041;-82
2021/09/18 09:31:35;;;;;;;17.00;10.27;;;;;;;;;;4793615;29;20043;-81
2021/09/18 09:34:07;;;;;;;15.57;10.68;;;;;;;;;;4769492;30;20042;-81
2021/09/18 09:36:44;;;;;;;14.05;9.57;;;;;;;;;;4789102;29;20125;-84
2021/09/18 09:39:14;;;;;;;11.88;9.25;;;;;;;;;;4785705;30;20034;-84
2021/09/18 09:41:48;;;;;;;10.95;7.90;;;;;;;;;;4767872;30;20102;-85
2021/09/18 09:44:25;;;;;;;11.35;7.68;;;;;;;;;;4786194;29;20110;-81
2021/09/18 09:46:59;;;;;;;10.45;6.95;;;;;;;;;;4785973;30;20107;-84
2021/09/18 09:49:43;;;;;;;13.18;9.18;;;;;;;;;;4788176;29;20058;-84
2021/09/18 09:52:20;;;;;;;11.98;9.10;;;;;;;;;;4768829;30;20035;-82
2021/09/18 09:54:45;;;;;;;9.80;7.55;;;;;;;;;;4765915;29;20050;-82
2021/09/18 09:57:12;;;;;;;9.73;7.43;;;;;;;;;;4758464;30;20059;-81
2021/09/18 09:59:39;;;;;;;9.65;7.15;;;;;;;;;;4782498;30;20027;-84
2021/09/18 10:02:07;;;;;;;8.48;6.82;;;;;;;;;;4774833;30;20131;-84
2021/09/18 10:04:34;;;;;;;9.68;7.40;;;;;;;;;;4789357;29;20407;-85
2021/09/18 10:07:00;;;;;;;11.38;7.05;;;;;;;;;;4785089;29;20484;-82
2021/09/18 10:09:26;;;;;;;12.68;8.60;;;;;;;;;;4790125;29;20119;-81
2021/09/18 10:11:54;;;;;;;10.35;7.60;;;;;;;;;;4770513;30;20085;-84
2021/09/18 10:14:22;;;;;;;9.20;6.53;;;;;;;;;;4774708;30;20035;-85
2021/09/18 10:16:50;;;;;;;9.48;7.25;;;;;;;;;;4784594;30;20515;-84
2021/09/18 10:19:18;;;;;;;10.38;7.80;;;;;;;;;;4777677;30;20052;-81
2021/09/18 10:24:31;;;;;;;12.68;9.10;;;;;;;;;;4777392;29;20041;-84
2021/09/18 10:27:13;;;;;;;13.68;8.68;;;;;;;;;;4780724;29;20030;-82
2021/09/18 10:29:38;;;;;;;12.05;7.68;;;;;;;;;;4789242;29;20088;-84
2021/09/18 10:32:04;;;;;;;13.30;7.30;;;;;;;;;;4773205;30;20031;-84
2021/09/18 10:34:29;;;;;;;8.63;6.93;;;;;;;;;;4763335;29;20034;-85
2021/09/18 10:36:55;;;;;;;12.50;7.40;;;;;;;;;;4779068;30;20496;-84
2021/09/18 10:39:20;;;;;;;10.25;7.53;;;;;;;;;;4778320;29;20121;-84
2021/09/18 10:41:52;;;;;;;11.45;7.53;;;;;;;;;;4795760;29;20038;-81
2021/09/18 10:44:20;;;;;;;9.85;6.75;;;;;;;;;;4757475;30;20120;-85
2021/09/18 10:46:50;;;;;;;10.60;7.00;;;;;;;;;;4770313;30;20034;-84
2021/09/18 10:49:41;;;;;;;9.45;6.78;;;;;;;;;;4799208;29;20098;-82
2021/09/18 10:52:29;;;;;;;9.95;6.07;;;;;;;;;;4768018;30;20060;-85
2021/09/18 10:55:07;;;;;;;10.85;8.18;;;;;;;;;;4788085;29;20027;-81
2021/09/18 10:57:36;;;;;;;9.48;7.18;;;;;;;;;;4786584;30;20464;-84
2021/09/18 11:00:19;;;;;;;8.82;5.90;;;;;;;;;;4785433;30;20024;-84
2021/09/18 11:02:52;;;;;;;7.30;5.00;;;;;;;;;;4782097;30;20463;-81
2021/09/18 11:05:18;;;;;;;4.70;3.20;;;;;;;;;;4760940;30;20507;-84
2021/09/18 11:07:45;;;;;;;8.88;3.78;;;;;;;;;;4773807;30;20066;-82
2021/09/18 11:10:14;;;;;;;6.35;3.80;;;;;;;;;;4789532;29;20035;-85
2021/09/18 11:12:42;;;;;;;6.05;4.47;;;;;;;;;;4786347;29;20032;-82
2021/09/18 11:15:12;;;;;;;6.15;4.10;;;;;;;;;;4789351;30;20031;-84
2021/09/18 11:17:42;;;;;;;5.90;3.65;;;;;;;;;;4779170;29;20145;-83
2021/09/18 11:20:16;;;;;;;5.97;4.00;;;;;;;;;;4788243;29;20039;-81
2021/09/18 11:22:43;;;;;;;4.65;3.20;;;;;;;;;;4771796;30;20034;-82
2021/09/18 11:25:30;;;;;;;5.72;2.75;;;;;;;;;;4789590;29;20036;-84
2021/09/18 11:28:15;;;;;;;5.90;3.83;;;;;;;;;;4785010;30;20516;-85
2021/09/18 11:30:42;;;;;;;7.68;4.90;;;;;;;;;;4787384;29;20512;-85
2021/09/18 11:33:08;;;;;;;7.18;5.07;;;;;;;;;;4768283;30;20069;-82
2021/09/18 11:35:38;;;;;;;8.45;5.70;;;;;;;;;;4781380;29;20095;-86
2021/09/18 11:38:09;;;;;;;7.72;5.20;;;;;;;;;;4780698;29;20031;-85
2021/09/18 11:40:36;;;;;;;7.15;6.00;;;;;;;;;;4782321;29;20031;-82
2021/09/18 11:43:04;;;;;;;6.68;5.28;;;;;;;;;;4774056;30;20506;-82
2021/09/18 11:45:38;;;;;;;5.95;4.07;;;;;;;;;;4769747;30;20035;-85
2021/09/18 11:48:10;;;;;;;6.10;4.43;;;;;;;;;;4779812;30;20067;-82
2021/09/18 11:50:42;;;;;;;8.87;5.20;;;;;;;;;;4766074;30;20046;-85
2021/09/18 11:53:19;;;;;;;5.40;3.83;;;;;;;;;;4772437;30;20099;-85
2021/09/18 11:55:58;;;;;;;6.15;4.28;;;;;;;;;;4786773;29;20694;-82
2021/09/18 11:58:54;;;;;;;6.47;4.70;;;;;;;;;;4778343;29;20063;-81
2021/09/18 12:01:19;;;;;;;6.38;5.00;;;;;;;;;;4768550;30;20027;-85
2021/09/18 12:03:54;;;;;;;5.50;4.10;;;;;;;;;;4763981;29;20101;-82
2021/09/18 12:06:23;;;;;;;6.40;3.72;;;;;;;;;;4764647;30;20074;-82
2021/09/18 12:08:49;;;;;;;6.15;4.63;;;;;;;;;;4756948;30;20047;-82
2021/09/18 12:11:18;;;;;;;6.38;4.40;;;;;;;;;;4763757;30;20677;-85
2021/09/18 12:13:55;;;;;;;6.60;4.28;;;;;;;;;;4784077;29;20505;-81
2021/09/18 12:16:44;;;;;;;5.57;3.80;;;;;;;;;;4778067;29;20063;-81
2021/09/18 12:19:10;;;;;;;;;;;;;;;;;;4779701;29;20042;-82
2021/09/18 12:21:49;;;;;;;5.57;3.10;;;;;;;;;;4767854;30;19928;-85
2021/09/18 12:24:25;;;;;;;5.00;3.15;;;;;;;;;;4786876;29;20035;-81
2021/09/18 12:26:50;;;;;;;3.85;2.70;;;;;;;;;;4775244;30;20043;-85
2021/09/18 12:29:17;;;;;;;4.50;2.80;;;;;;;;;;4758017;29;20506;-85
2021/09/18 12:31:46;;;;;;;3.85;2.80;;;;;;;;;;4794095;29;20039;-84
2021/09/18 12:34:15;;;;;;;5.13;3.20;;;;;;;;;;4791922;29;20031;-83
2021/09/18 12:36:44;;;;;;;5.63;3.28;;;;;;;;;;4790561;29;20488;-83
2021/09/18 12:39:11;;;;;;;3.50;2.85;;;;;;;;;;4789860;29;20031;-84
2021/09/18 12:41:39;;;;;;;4.85;2.90;;;;;;;;;;4786565;30;20092;-86
2021/09/18 12:44:06;;;;;;;4.93;3.00;;;;;;;;;;4786934;29;20035;-82
2021/09/18 12:46:52;;;;;;;4.85;3.70;;;;;;;;;;4780419;30;20130;-84
2021/09/18 12:49:18;;;;;;;6.70;3.45;;;;;;;;;;4770626;29;20054;-83
2021/09/18 12:51:46;;;;;;;8.40;4.10;;;;;;;;;;4782577;29;20054;-82
2021/09/18 12:54:20;;;;;;;5.32;4.03;;;;;;;;;;4774359;30;20484;-85
2021/09/18 12:56:46;;;;;;;7.68;4.80;;;;;;;;;;4784505;30;20061;-85
2021/09/18 12:59:17;;;;;;;7.07;4.93;;;;;;;;;;4767322;30;20491;-84
2021/09/18 13:01:54;;;;;;;6.90;4.32;;;;;;;;;;4789930;29;20038;-85
2021/09/18 13:04:23;;;;;;;5.07;3.85;;;;;;;;;;4759892;29;20028;-82
2021/09/18 13:06:58;;;;;;;8.65;4.25;;;;;;;;;;4778495;30;20031;-83
2021/09/18 13:09:26;;;;;;;6.97;4.80;;;;;;;;;;4775626;30;20039;-85
2021/09/18 13:11:55;;;;;;;6.32;5.03;;;;;;;;;;4788578;29;20031;-83
2021/09/18 13:14:31;;;;;;;7.57;4.78;;;;;;;;;;4785101;30;20164;-85
2021/09/18 13:16:57;;;;;;;7.00;4.38;;;;;;;;;;4783892;29;20477;-82
2021/09/18 13:19:23;;;;;;;8.27;5.10;;;;;;;;;;4786380;29;20095;-83
2021/09/18 13:21:49;;;;;;;6.95;4.75;;;;;;;;;;4774110;30;20144;-82
2021/09/18 13:24:19;;;;;;;7.38;4.40;;;;;;;;;;4788939;30;20484;-85
2021/09/18 13:26:44;;;;;;;7.05;4.35;;;;;;;;;;4778353;30;20031;-82
2021/09/18 13:29:10;;;;;;;6.95;4.35;;;;;;;;;;4787332;30;20418;-83
2021/09/18 13:31:36;;;;;;;6.35;3.90;;;;;;;;;;4771438;30;20051;-85
2021/09/18 13:34:02;;;;;;;6.55;4.05;;;;;;;;;;4780456;29;20389;-86
2021/09/18 13:36:27;;;;;;;5.55;3.70;;;;;;;;;;4787323;29;20050;-81
2021/09/18 13:38:53;;;;;;;5.18;3.58;;;;;;;;;;4782236;29;20115;-82
2021/09/18 13:41:18;;;;;;;6.22;3.90;;;;;;;;;;4757659;30;20039;-81
2021/09/18 13:43:44;;;;;;;6.47;4.75;;;;;;;;;;4779881;29;20026;-84
2021/09/18 13:46:10;;;;;;;8.52;5.50;;;;;;;;;;4780089;29;20031;-83
2021/09/18 13:48:35;;;;;;;8.52;6.22;;;;;;;;;;4773635;30;20043;-86
2021/09/18 13:51:02;;;;;;;8.57;5.63;;;;;;;;;;4787787;29;20484;-86
2021/09/18 13:53:28;;;;;;;9.60;6.97;;;;;;;;;;4788151;29;20586;-84
2021/09/18 13:55:56;;;;;;;9.80;6.57;;;;;;;;;;4766986;30;20046;-83
2021/09/18 13:58:32;;;;;;;;;;;;;;;;;;;;;
2021/09/18 14:00:58;;;;;;;7.47;5.43;;;;;;;;;;4783573;29;20500;-85
2021/09/18 14:03:23;;;;;;;7.63;5.43;;;;;;;;;;4753442;30;20122;-82
2021/09/18 14:05:48;;;;;;;6.65;5.00;;;;;;;;;;4770745;29;20067;-85
2021/09/18 14:08:14;;;;;;;6.13;4.63;;;;;;;;;;4768534;30;20072;-86
2021/09/18 14:10:40;;;;;;;8.48;4.65;;;;;;;;;;4769137;30;20044;-81
2021/09/18 14:13:05;;;;;;;7.72;5.32;;;;;;;;;;4738204;29;20130;-82
2021/09/18 14:15:31;;;;;;;9.98;5.43;;;;;;;;;;4767660;30;20043;-84
2021/09/18 14:17:56;;;;;;;10.32;6.43;;;;;;;;;;4768613;29;20047;-82
2021/09/18 14:20:22;;;;;;;8.40;6.63;;;;;;;;;;4769097;30;20035;-82
2021/09/18 14:22:47;;;;;;;10.80;6.95;;;;;;;;;;4777378;29;20039;-82
2021/09/18 14:25:13;;;;;;;9.70;6.80;;;;;;;;;;4757215;29;20595;-81
2021/09/18 14:27:39;;;;;;;9.65;6.38;;;;;;;;;;4787149;29;20795;-83
2021/09/18 14:30:07;;;;;;;7.82;5.60;;;;;;;;;;4780105;29;20045;-85
2021/09/18 14:32:33;;;;;;;9.43;6.55;;;;;;;;;;4754524;29;20078;-85
2021/09/18 14:34:58;;;;;;;8.05;6.00;;;;;;;;;;4783413;29;20077;-86
2021/09/18 14:37:24;;;;;;;10.35;7.45;;;;;;;;;;4768457;29;20031;-86